createdAt,value
2022-12-28T00:01:21.829Z,0.95
2022-12-28T00:03:50.486Z,0.80
2022-12-28T00:06:19.766Z,0.70
2022-12-28T00:08:50.006Z,0.70
2022-12-28T00:11:27.897Z,0.77
2022-12-28T00:14:00.157Z,0.90
2022-12-28T00:16:30.343Z,0.70
2022-12-28T00:18:59.501Z,0.80
2022-12-28T00:21:28.563Z,0.70
2022-12-28T00:23:59.771Z,0.73
2022-12-28T00:26:29.356Z,0.93
2022-12-28T00:29:04.115Z,0.98
2022-12-28T00:31:34.670Z,0.75
2022-12-28T00:34:03.374Z,0.75
2022-12-28T00:37:08.701Z,0.88
2022-12-28T00:39:22.367Z,0.68
2022-12-28T00:41:51.075Z,0.60
2022-12-28T00:44:19.794Z,0.60
2022-12-28T00:46:50.756Z,1.10
2022-12-28T00:49:20.193Z,0.95
2022-12-28T00:51:49.052Z,0.73
2022-12-28T00:54:17.745Z,0.80
2022-12-28T00:56:47.726Z,0.77
2022-12-28T00:59:16.636Z,0.70
2022-12-28T01:01:45.413Z,0.80
2022-12-28T01:04:15.851Z,0.82
2022-12-28T01:06:44.521Z,0.90
2022-12-28T01:09:13.202Z,0.77
2022-12-28T01:11:41.991Z,0.70
2022-12-28T01:14:12.221Z,0.90
2022-12-28T01:16:40.866Z,1.00
2022-12-28T01:19:10.127Z,0.95
2022-12-28T01:21:38.733Z,0.52
2022-12-28T01:24:08.792Z,0.73
2022-12-28T01:26:37.607Z,0.57
2022-12-28T01:29:06.286Z,0.75
2022-12-28T01:31:36.321Z,0.80
2022-12-28T01:34:05.147Z,0.80
2022-12-28T01:36:36.059Z,0.70
2022-12-28T01:39:08.085Z,0.80
2022-12-28T01:41:39.541Z,0.70
2022-12-28T01:44:26.703Z,0.85
2022-12-28T01:46:58.923Z,0.77
2022-12-28T01:49:31.409Z,0.82
2022-12-28T01:52:02.610Z,0.70
2022-12-28T01:54:32.290Z,0.70
2022-12-28T01:57:00.902Z,0.70
2022-12-28T01:59:32.215Z,0.80
2022-12-28T02:02:02.565Z,0.75
2022-12-28T02:04:31.315Z,1.10
2022-12-28T02:07:00.000Z,0.77
2022-12-28T02:09:31.933Z,1.30
2022-12-28T02:12:01.098Z,0.68
2022-12-28T02:14:29.860Z,0.70
2022-12-28T02:16:58.711Z,0.75
2022-12-28T02:19:35.451Z,0.70
2022-12-28T02:22:09.211Z,0.88
2022-12-28T02:25:12.389Z,1.38
2022-12-28T02:27:46.037Z,0.88
2022-12-28T02:30:16.226Z,0.73
2022-12-28T02:32:53.414Z,0.80
2022-12-28T02:35:26.608Z,0.85
2022-12-28T02:37:57.630Z,0.85
2022-12-28T02:40:27.675Z,0.80
2022-12-28T02:42:56.702Z,0.98
2022-12-28T02:45:51.818Z,0.60
2022-12-28T02:48:38.234Z,0.75
2022-12-28T02:51:19.824Z,0.82
2022-12-28T02:53:57.300Z,0.82
2022-12-28T02:56:31.979Z,0.90
2022-12-28T02:59:09.013Z,0.77
2022-12-28T03:01:56.617Z,0.77
2022-12-28T03:04:31.949Z,0.70
2022-12-28T03:07:23.710Z,0.95
2022-12-28T03:09:54.449Z,0.55
2022-12-28T03:12:26.642Z,0.90
2022-12-28T03:14:58.740Z,0.60
2022-12-28T03:17:48.749Z,0.80
2022-12-28T03:20:40.871Z,0.70
2022-12-28T03:23:28.305Z,0.85
2022-12-28T03:26:15.850Z,0.70
2022-12-28T03:29:05.414Z,0.70
2022-12-28T03:31:39.401Z,1.30
2022-12-28T03:34:12.425Z,0.70
2022-12-28T03:36:48.823Z,0.70
2022-12-28T03:39:22.386Z,1.30
2022-12-28T03:42:06.857Z,0.75
2022-12-28T03:44:36.957Z,0.80
2022-12-28T03:47:08.899Z,1.10
2022-12-28T03:49:37.973Z,0.73
2022-12-28T03:52:09.490Z,0.77
2022-12-28T03:54:38.201Z,1.00
2022-12-28T03:57:07.078Z,0.75
2022-12-28T03:59:40.736Z,0.80
2022-12-28T04:02:09.745Z,0.90
2022-12-28T04:04:38.538Z,0.90
2022-12-28T04:07:08.561Z,0.77
2022-12-28T04:09:37.447Z,0.75
2022-12-28T04:12:07.007Z,0.70
2022-12-28T04:15:01.239Z,0.75
2022-12-28T04:17:31.461Z,0.90
2022-12-28T04:20:00.136Z,1.00
2022-12-28T04:22:30.206Z,1.10
2022-12-28T04:25:00.335Z,1.23
2022-12-28T04:27:29.061Z,0.82
2022-12-28T04:30:03.022Z,0.90
2022-12-28T04:32:33.837Z,0.63
2022-12-28T04:35:03.104Z,0.70
2022-12-28T04:37:38.047Z,1.27
2022-12-28T04:40:07.173Z,1.30
2022-12-28T04:42:35.705Z,0.98
2022-12-28T04:45:04.332Z,0.98
2022-12-28T04:47:33.048Z,1.05
2022-12-28T04:50:01.752Z,0.85
2022-12-28T04:52:30.392Z,0.80
2022-12-28T04:55:00.447Z,0.85
2022-12-28T04:57:29.144Z,0.90
2022-12-28T04:59:57.750Z,0.70
2022-12-28T05:02:26.472Z,0.70
2022-12-28T05:04:55.370Z,0.80
2022-12-28T05:07:24.027Z,0.85
2022-12-28T05:09:52.700Z,0.80
2022-12-28T05:12:22.972Z,1.08
2022-12-28T05:14:51.553Z,0.77
2022-12-28T05:17:20.181Z,0.70
2022-12-28T05:19:48.830Z,0.90
2022-12-28T05:22:17.861Z,0.70
2022-12-28T05:24:46.784Z,0.80
2022-12-28T05:27:15.504Z,1.02
2022-12-28T05:29:45.526Z,1.00
2022-12-28T05:32:14.233Z,0.80
2022-12-28T05:34:44.222Z,0.80
2022-12-28T05:37:18.517Z,1.10
2022-12-28T05:39:50.406Z,1.23
2022-12-28T05:42:19.012Z,1.20
2022-12-28T05:44:48.958Z,0.70
2022-12-28T05:47:17.629Z,0.93
2022-12-28T05:49:47.456Z,1.13
2022-12-28T05:52:16.194Z,0.93
2022-12-28T05:54:44.777Z,0.90
2022-12-28T05:57:13.427Z,0.77
2022-12-28T05:59:41.998Z,1.17
2022-12-28T06:02:12.081Z,0.88
2022-12-28T06:04:42.129Z,0.80
2022-12-28T06:07:10.708Z,0.90
2022-12-28T06:09:39.377Z,0.95
2022-12-28T06:12:08.185Z,1.20
2022-12-28T06:14:36.752Z,1.00
2022-12-28T06:17:05.328Z,1.35
2022-12-28T06:19:35.226Z,0.80
2022-12-28T06:22:03.912Z,1.10
2022-12-28T06:24:32.526Z,0.80
2022-12-28T06:27:01.216Z,0.93
2022-12-28T06:29:29.797Z,1.13
2022-12-28T06:32:00.331Z,1.00
2022-12-28T06:34:29.191Z,1.05
2022-12-28T06:37:00.218Z,1.20
2022-12-28T06:39:29.225Z,0.90
2022-12-28T06:41:57.893Z,0.88
2022-12-28T06:44:26.498Z,1.30
2022-12-28T06:46:55.120Z,0.90
2022-12-28T06:49:23.713Z,1.00
2022-12-28T06:51:52.359Z,1.05
2022-12-28T06:54:22.391Z,1.05
2022-12-28T06:56:51.052Z,1.02
2022-12-28T06:59:19.651Z,0.98
2022-12-28T07:01:48.337Z,1.17
2022-12-28T07:04:17.219Z,1.33
2022-12-28T07:06:46.149Z,1.95
2022-12-28T07:09:15.765Z,0.90
2022-12-28T07:11:46.181Z,1.10
2022-12-28T07:14:14.945Z,1.55
2022-12-28T07:16:43.598Z,1.38
2022-12-28T07:19:12.259Z,1.00
2022-12-28T07:21:41.669Z,1.30
2022-12-28T07:24:10.618Z,1.50
2022-12-28T07:26:39.917Z,1.20
2022-12-28T07:29:10.564Z,1.40
2022-12-28T07:31:45.264Z,1.13
2022-12-28T07:34:14.779Z,1.23
2022-12-28T07:36:43.859Z,1.23
2022-12-28T07:39:12.596Z,1.30
2022-12-28T07:41:41.216Z,1.27
2022-12-28T07:44:12.784Z,1.30
2022-12-28T07:46:41.435Z,1.10
2022-12-28T07:49:10.159Z,1.20
2022-12-28T07:51:39.855Z,1.50
2022-12-28T07:54:08.506Z,2.35
2022-12-28T07:59:05.903Z,4.00
2022-12-28T08:01:37.297Z,3.42
2022-12-28T08:04:07.673Z,2.70
2022-12-28T08:06:37.441Z,1.92
2022-12-28T08:09:06.583Z,1.63
2022-12-28T08:11:36.194Z,1.98
2022-12-28T08:14:05.174Z,1.60
2022-12-28T08:16:36.718Z,1.60
2022-12-28T08:19:07.210Z,1.48
2022-12-28T08:21:37.118Z,1.38
2022-12-28T08:24:06.173Z,1.48
2022-12-28T08:26:35.410Z,2.03
2022-12-28T08:29:05.148Z,1.48
2022-12-28T08:31:35.081Z,1.70
2022-12-28T08:34:05.219Z,1.52
2022-12-28T08:36:35.247Z,2.00
2022-12-28T08:39:03.921Z,2.05
2022-12-28T08:41:32.679Z,1.77
2022-12-28T08:44:01.685Z,1.50
2022-12-28T08:46:31.438Z,2.08
2022-12-28T08:49:01.215Z,1.90
2022-12-28T08:51:31.901Z,2.03
2022-12-28T08:54:02.392Z,1.88
2022-12-28T08:56:31.781Z,1.67
2022-12-28T08:59:00.683Z,1.77
2022-12-28T09:01:30.470Z,2.40
2022-12-28T09:04:00.188Z,2.05
2022-12-28T09:06:30.247Z,2.75
2022-12-28T09:09:08.022Z,2.72
2022-12-28T09:11:38.605Z,2.60
2022-12-28T09:14:08.655Z,3.67
2022-12-28T09:16:37.552Z,4.00
2022-12-28T09:19:07.314Z,3.63
2022-12-28T09:21:36.723Z,3.55
2022-12-28T09:24:05.676Z,3.33
2022-12-28T09:26:36.299Z,4.70
2022-12-28T09:29:06.941Z,5.28
2022-12-28T09:31:37.265Z,4.93
2022-12-28T09:36:55.189Z,3.30
2022-12-28T09:39:24.983Z,3.10
2022-12-28T09:41:56.169Z,3.35
2022-12-28T09:44:44.215Z,3.17
2022-12-28T09:47:17.561Z,2.80
2022-12-28T09:49:48.573Z,2.90
2022-12-28T09:52:26.757Z,3.53
2022-12-28T09:54:55.757Z,3.13
2022-12-28T09:57:24.945Z,2.90
2022-12-28T09:59:55.211Z,2.72
2022-12-28T10:02:27.610Z,4.40
2022-12-28T10:04:57.392Z,3.55
2022-12-28T10:07:26.119Z,3.15
2022-12-28T10:09:54.734Z,3.00
2022-12-28T10:12:24.597Z,3.05
2022-12-28T10:14:55.498Z,2.92
2022-12-28T10:17:30.851Z,2.75
2022-12-28T10:20:00.300Z,2.22
2022-12-28T10:22:36.053Z,2.35
2022-12-28T10:25:04.775Z,3.55
2022-12-28T10:27:33.646Z,4.18
2022-12-28T10:30:04.479Z,3.60
2022-12-28T10:32:40.246Z,4.40
2022-12-28T10:35:12.324Z,5.20
2022-12-28T10:37:45.906Z,5.70
2022-12-28T10:40:21.083Z,5.55
2022-12-28T10:42:52.922Z,5.28
2022-12-28T10:45:24.349Z,4.78
2022-12-28T10:47:54.215Z,4.35
2022-12-28T10:53:28.370Z,4.00
2022-12-28T10:56:08.302Z,3.53
2022-12-28T10:58:37.104Z,4.15
2022-12-28T11:01:08.749Z,3.50
2022-12-28T11:03:21.806Z,4.78
2022-12-28T11:03:38.470Z,3.78
2022-12-28T11:06:11.349Z,3.78
2022-12-28T11:08:40.729Z,4.38
2022-12-28T11:11:10.064Z,4.55
2022-12-28T11:13:39.040Z,4.20
2022-12-28T11:16:12.548Z,3.25
2022-12-28T11:18:41.849Z,3.17
2022-12-28T11:21:11.900Z,3.50
2022-12-28T11:23:40.652Z,3.38
2022-12-28T11:26:12.460Z,3.38
2022-12-28T11:28:42.851Z,3.33
2022-12-28T11:31:18.346Z,2.90
2022-12-28T11:33:47.777Z,3.42
2022-12-28T11:36:16.939Z,3.35
2022-12-28T11:38:46.380Z,2.92
2022-12-28T11:41:35.009Z,3.17
2022-12-28T11:44:04.728Z,3.30
2022-12-28T11:46:44.961Z,3.50
2022-12-28T11:49:27.741Z,2.92
2022-12-28T11:52:27.560Z,3.30
2022-12-28T11:54:56.989Z,3.00
2022-12-28T11:57:35.658Z,3.38
2022-12-28T12:00:25.343Z,3.40
2022-12-28T12:02:57.470Z,3.40
2022-12-28T12:05:44.776Z,3.00
2022-12-28T12:08:28.287Z,3.65
2022-12-28T12:11:11.716Z,3.28
2022-12-28T12:13:45.444Z,4.03
2022-12-28T12:16:21.061Z,4.13
2022-12-28T12:18:52.959Z,4.32
2022-12-28T12:21:31.971Z,5.40
2022-12-28T12:24:06.034Z,6.03
2022-12-28T12:26:38.063Z,5.72
2022-12-28T12:29:08.394Z,5.43
2022-12-28T12:31:39.410Z,4.93
2022-12-28T12:34:19.029Z,4.10
2022-12-28T12:37:03.136Z,4.10
2022-12-28T12:39:36.717Z,3.90
2022-12-28T12:42:09.543Z,3.58
2022-12-28T12:44:42.188Z,3.00
2022-12-28T12:47:20.400Z,3.67
2022-12-28T12:49:56.393Z,3.90
2022-12-28T12:52:31.890Z,3.53
2022-12-28T12:55:07.213Z,4.53
2022-12-28T12:57:38.620Z,4.03
2022-12-28T13:00:12.947Z,3.40
2022-12-28T13:03:02.513Z,3.63
2022-12-28T13:05:33.333Z,3.30
2022-12-28T13:08:02.605Z,3.67
2022-12-28T13:10:33.323Z,3.17
2022-12-28T13:13:02.712Z,3.60
2022-12-28T13:15:32.116Z,3.10
2022-12-28T13:18:18.185Z,3.13
2022-12-28T13:20:59.052Z,3.17
2022-12-28T13:23:28.158Z,3.50
2022-12-28T13:25:58.396Z,2.90
2022-12-28T13:28:29.614Z,2.88
2022-12-28T13:31:06.242Z,2.65
2022-12-28T13:33:35.063Z,3.17
2022-12-28T13:36:12.831Z,3.15
2022-12-28T13:38:41.521Z,2.78
2022-12-28T13:41:18.768Z,3.47
2022-12-28T13:44:00.066Z,3.50
2022-12-28T13:46:29.088Z,3.15
2022-12-28T13:48:59.585Z,3.25
2022-12-28T13:51:30.024Z,3.05
2022-12-28T13:54:01.571Z,4.03
2022-12-28T13:56:31.909Z,3.05
2022-12-28T13:59:01.925Z,3.53
2022-12-28T14:01:32.988Z,4.13
2022-12-28T14:04:25.974Z,4.85
2022-12-28T14:06:53.496Z,4.22
2022-12-28T14:09:23.071Z,4.90
2022-12-28T14:11:51.884Z,4.00
2022-12-28T14:14:20.593Z,3.78
2022-12-28T14:16:49.265Z,4.70
2022-12-28T14:19:17.933Z,3.90
2022-12-28T14:21:46.941Z,3.30
2022-12-28T14:24:18.281Z,4.22
2022-12-28T14:26:48.841Z,3.22
2022-12-28T14:29:21.228Z,3.33
2022-12-28T14:31:49.969Z,3.58
2022-12-28T14:34:23.278Z,3.53
2022-12-28T14:36:52.883Z,3.30
2022-12-28T14:39:27.630Z,2.30
2022-12-28T14:41:56.325Z,2.78
2022-12-28T14:44:28.105Z,2.83
2022-12-28T14:46:56.929Z,2.65
2022-12-28T14:49:26.787Z,2.90
2022-12-28T14:51:55.506Z,3.10
2022-12-28T14:54:26.142Z,2.63
2022-12-28T14:56:56.447Z,2.83
2022-12-28T14:59:27.818Z,2.92
2022-12-28T15:01:56.518Z,3.05
2022-12-28T15:04:30.302Z,3.38
2022-12-28T15:06:59.088Z,3.58
2022-12-28T15:09:29.134Z,3.58
2022-12-28T15:12:10.910Z,4.68
2022-12-28T15:14:39.855Z,4.13
2022-12-28T15:17:08.936Z,3.88
2022-12-28T15:19:37.897Z,4.70
2022-12-28T15:22:06.585Z,5.80
2022-12-28T15:24:36.910Z,5.43
2022-12-28T15:27:05.969Z,4.43
2022-12-28T15:32:23.533Z,4.97
2022-12-28T15:34:52.179Z,4.53
2022-12-28T15:37:20.931Z,4.72
2022-12-28T15:39:51.225Z,4.30
2022-12-28T15:42:19.918Z,4.40
2022-12-28T15:44:48.716Z,4.45
2022-12-28T15:47:17.516Z,4.85
2022-12-28T15:49:46.197Z,4.68
2022-12-28T15:52:15.091Z,4.55
2022-12-28T15:54:47.199Z,4.40
2022-12-28T15:57:17.693Z,4.32
2022-12-28T15:59:46.381Z,4.80
2022-12-28T16:02:15.329Z,5.00
2022-12-28T16:04:44.564Z,4.15
2022-12-28T16:07:13.200Z,4.15
2022-12-28T16:09:41.903Z,4.95
2022-12-28T16:12:10.998Z,6.03
2022-12-28T16:14:41.569Z,3.70
2022-12-28T16:17:10.388Z,4.28
2022-12-28T16:19:39.032Z,3.38
2022-12-28T16:22:07.689Z,3.63
2022-12-28T16:24:37.560Z,3.60
2022-12-28T16:27:06.444Z,3.40
2022-12-28T16:29:35.114Z,2.80
2022-12-28T16:32:05.388Z,2.88
2022-12-28T16:34:34.190Z,2.72
2022-12-28T16:37:03.082Z,3.55
2022-12-28T16:39:32.152Z,2.90
2022-12-28T16:42:00.888Z,3.28
2022-12-28T16:44:29.640Z,3.10
2022-12-28T16:46:59.537Z,3.70
2022-12-28T16:49:30.953Z,3.35
2022-12-28T16:52:00.088Z,4.05
2022-12-28T16:54:29.158Z,5.40
2022-12-28T16:56:57.999Z,4.47
2022-12-28T16:59:27.849Z,5.43
2022-12-28T17:01:57.531Z,5.22
2022-12-28T17:04:26.399Z,5.30
2022-12-28T17:06:56.476Z,5.43
2022-12-28T17:09:25.109Z,5.60
2022-12-28T17:11:53.829Z,5.80
2022-12-28T17:14:36.888Z,4.93
2022-12-28T17:17:06.065Z,5.20
2022-12-28T17:19:34.962Z,4.15
2022-12-28T17:22:05.219Z,3.90
2022-12-28T17:24:33.947Z,3.78
2022-12-28T17:27:07.814Z,3.17
2022-12-28T17:29:37.086Z,3.58
2022-12-28T17:32:06.495Z,3.40
2022-12-28T17:34:35.249Z,3.92
2022-12-28T17:37:05.530Z,3.78
2022-12-28T17:39:40.189Z,3.20
2022-12-28T17:42:09.953Z,3.47
2022-12-28T17:44:38.661Z,3.72
2022-12-28T17:47:07.543Z,4.90
2022-12-28T17:49:36.252Z,4.63
2022-12-28T17:52:06.449Z,4.88
2022-12-28T17:54:35.191Z,5.22
2022-12-28T17:57:03.824Z,3.78
2022-12-28T17:59:32.441Z,4.70
2022-12-28T18:02:01.839Z,3.80
2022-12-28T18:04:30.931Z,3.83
2022-12-28T18:06:59.595Z,4.55
2022-12-28T18:09:29.665Z,3.00
2022-12-28T18:11:58.623Z,2.70
2022-12-28T18:14:27.644Z,2.63
2022-12-28T18:16:56.709Z,2.83
2022-12-28T18:19:25.388Z,2.75
2022-12-28T18:21:54.046Z,2.60
2022-12-28T18:24:22.694Z,2.35
2022-12-28T18:26:52.772Z,2.38
2022-12-28T18:29:21.469Z,2.75
2022-12-28T18:31:50.028Z,2.53
2022-12-28T18:34:18.660Z,2.03
2022-12-28T18:36:47.289Z,1.80
2022-12-28T18:39:15.999Z,2.00
2022-12-28T18:41:44.704Z,2.45
2022-12-28T18:44:14.633Z,4.97
2022-12-28T18:46:43.287Z,8.00
2022-12-28T18:49:11.969Z,6.43
2022-12-28T18:51:40.529Z,5.72
2022-12-28T18:54:09.283Z,1.88
2022-12-28T18:56:37.894Z,3.00
2022-12-28T18:59:06.565Z,2.50
2022-12-28T19:02:05.845Z,2.22
2022-12-28T19:04:29.355Z,2.80
2022-12-28T19:06:58.225Z,3.45
2022-12-28T19:09:26.850Z,2.63
2022-12-28T19:11:55.600Z,2.35
2022-12-28T19:14:24.376Z,2.20
2022-12-28T19:16:54.438Z,2.05
2022-12-28T19:19:23.030Z,2.00
2022-12-28T19:21:58.375Z,2.10
2022-12-28T19:24:27.727Z,1.77
2022-12-28T19:26:56.348Z,2.22
2022-12-28T19:29:25.037Z,1.80
2022-12-28T19:31:55.539Z,1.70
2022-12-28T19:34:24.342Z,2.10
2022-12-28T19:36:52.917Z,2.35
2022-12-28T19:39:21.551Z,1.90
2022-12-28T19:41:50.217Z,1.50
2022-12-28T19:44:20.851Z,1.70
2022-12-28T19:46:50.062Z,2.00
2022-12-28T19:49:20.146Z,1.70
2022-12-28T19:51:48.970Z,1.67
2022-12-28T19:54:17.576Z,1.60
2022-12-28T19:56:46.348Z,1.42
2022-12-28T19:59:14.968Z,1.50
2022-12-28T20:01:43.601Z,1.55
2022-12-28T20:04:14.395Z,1.52
2022-12-28T20:06:45.316Z,1.27
2022-12-28T20:09:14.510Z,1.70
2022-12-28T20:11:44.914Z,1.92
2022-12-28T20:14:15.831Z,1.42
2022-12-28T20:16:50.346Z,1.90
2022-12-28T20:19:18.982Z,1.55
2022-12-28T20:21:49.594Z,1.45
2022-12-28T20:24:21.550Z,1.65
2022-12-28T20:26:50.230Z,1.52
2022-12-28T20:29:18.885Z,1.63
2022-12-28T20:31:47.498Z,1.70
2022-12-28T20:34:16.265Z,1.45
2022-12-28T20:36:45.030Z,1.23
2022-12-28T20:39:15.050Z,1.35
2022-12-28T20:42:01.223Z,1.00
2022-12-28T20:44:32.349Z,1.20
2022-12-28T20:47:01.850Z,1.25
2022-12-28T20:49:31.638Z,1.50
2022-12-28T20:52:00.466Z,7.72
2022-12-28T20:54:30.428Z,4.30
2022-12-28T20:56:59.060Z,2.40
2022-12-28T20:59:27.841Z,1.73
2022-12-28T21:01:56.808Z,2.00
2022-12-28T21:04:26.058Z,2.20
2022-12-28T21:06:55.353Z,2.10
2022-12-28T21:09:24.599Z,1.95
2022-12-28T21:11:54.579Z,1.95
2022-12-28T21:14:26.502Z,1.80
2022-12-28T21:16:55.188Z,2.25
2022-12-28T21:19:24.020Z,2.58
2022-12-28T21:21:52.738Z,1.83
2022-12-28T21:24:21.390Z,2.10
2022-12-28T21:26:50.039Z,1.88
2022-12-28T21:29:25.561Z,1.85
2022-12-28T21:31:54.815Z,1.52
2022-12-28T21:34:23.636Z,1.63
2022-12-28T21:36:52.314Z,1.38
2022-12-28T21:39:20.968Z,1.30
2022-12-28T21:41:49.804Z,2.20
2022-12-28T21:44:20.908Z,3.30
2022-12-28T21:46:50.726Z,2.22
2022-12-28T21:49:19.622Z,3.53
2022-12-28T21:51:48.400Z,3.70
2022-12-28T21:54:18.416Z,2.65
2022-12-28T21:56:48.348Z,2.80
2022-12-28T21:59:17.025Z,3.55
2022-12-28T22:02:04.568Z,3.92
2022-12-28T22:04:52.473Z,3.40
2022-12-28T22:07:25.169Z,2.70
2022-12-28T22:10:11.842Z,3.88
2022-12-28T22:12:40.962Z,4.30
2022-12-28T22:15:28.811Z,4.45
2022-12-28T22:17:59.984Z,3.83
2022-12-28T22:20:29.750Z,3.97
2022-12-28T22:22:59.415Z,4.35
2022-12-28T22:25:28.628Z,4.53
2022-12-28T22:27:57.592Z,4.32
2022-12-28T22:30:26.229Z,3.58
2022-12-28T22:32:54.958Z,2.88
2022-12-28T22:35:25.357Z,2.90
2022-12-28T22:37:54.144Z,3.03
2022-12-28T22:40:22.855Z,3.10
2022-12-28T22:42:52.410Z,3.22
2022-12-28T22:45:21.705Z,3.30
2022-12-28T22:47:50.506Z,3.40
2022-12-28T22:50:19.759Z,3.03
2022-12-28T22:52:49.989Z,3.20
2022-12-28T22:55:18.853Z,3.67
2022-12-28T22:57:47.623Z,3.17
2022-12-28T23:00:16.764Z,3.45
2022-12-28T23:02:45.777Z,3.35
2022-12-28T23:05:14.699Z,3.80
2022-12-28T23:07:43.482Z,4.00
2022-12-28T23:10:13.493Z,5.45
2022-12-28T23:12:42.159Z,3.40
2022-12-28T23:15:18.861Z,3.25
2022-12-28T23:17:48.102Z,3.67
2022-12-28T23:20:34.514Z,4.18
2022-12-28T23:23:20.674Z,4.38
2022-12-28T23:26:08.119Z,3.80
2022-12-28T23:28:37.088Z,3.78
2022-12-28T23:31:06.225Z,3.47
2022-12-28T23:33:36.701Z,3.20
2022-12-28T23:36:06.069Z,4.30
2022-12-28T23:38:34.850Z,4.00
2022-12-28T23:41:22.307Z,4.07
2022-12-28T23:43:51.023Z,5.32
2022-12-28T23:46:19.756Z,3.78
2022-12-28T23:48:48.449Z,3.65
2022-12-28T23:51:18.136Z,4.20
2022-12-28T23:53:46.971Z,4.20
2022-12-28T23:56:16.984Z,4.20
2022-12-28T23:58:45.849Z,4.45
